Latest Weather Observations for Marree Airport

IDS60801

Issued at 7:01 am CDT Sunday 26 February 2017 (issued every 30 minutes, with the page automatically refreshed every 10 minutes)

About weather observations | Map of weather stations | Latest weather observations for SA | Other Formats
Station Details ID: 017126 Name: MARREE AERO Lat: -29.66 Lon: 138.07 Height: 50.0 m
Data from the previous 72 hours. | See also: Recent months at Marree Airport
Date/Time
CDT
Temp
°C
App
Temp
°C
Dew
Point
°C
Rel
Hum
%
Delta-T
°C
Wind Press
QNH
hPa
Press
MSL
hPa
Rain since
9am
mm
Dir  Spd
km/h
Gust
km/h
Spd
kts
Gust
kts
26/06:30am 16.9 12.0 2.1 37 6.7 S 17 19 9 10 1016.2 1015.9 0.0
26/06:00am 17.2 12.2 1.6 35 7.0 SSE 17 17 9 9 1015.9 1015.6 0.0
26/05:30am 18.3 13.4 1.8 33 7.5 S 17 20 9 11 1015.6 1015.2 0.0
26/05:00am 18.4 13.5 1.9 33 7.5 SSE 17 20 9 11 1015.4 1015.0 0.0
26/04:30am 19.2 14.3 2.1 32 7.8 S 17 20 9 11 1015.4 1015.0 0.0
26/04:00am 18.9 14.0 1.9 32 7.7 S 17 19 9 10 1015.5 1015.1 0.0
26/03:30am 19.2 14.3 2.1 32 7.8 S 17 19 9 10 1015.5 1015.1 0.0
26/03:00am 19.6 15.5 2.5 32 7.9 S 13 15 7 8 1015.6 1015.2 0.0
26/02:30am 21.0 16.6 2.8 30 8.6 S 15 20 8 11 1015.6 1015.2 0.0
26/02:00am 21.1 16.7 2.9 30 8.6 S 15 17 8 9 1015.7 1015.4 0.0
26/01:30am 21.6 17.3 3.3 30 8.7 S 15 17 8 9 1016.0 1015.7 0.0
26/01:00am 21.3 17.3 3.0 30 8.7 S 13 15 7 8 1016.3 1016.0 0.0
26/12:30am 21.7 17.7 2.9 29 8.9 S 13 13 7 7 1016.5 1016.2 0.0
26/12:00am 22.3 18.3 2.9 28 9.2 SSE 13 15 7 8 1016.6 1016.3 0.0
 
Date/Time
CDT
Temp
°C
App
Temp
°C
Dew
Point
°C
Rel
Hum
%
Delta-T
°C
Wind Press
QNH
hPa
Press
MSL
hPa
Rain since
9am
mm
Dir  Spd
km/h
Gust
km/h
Spd
kts
Gust
kts
25/11:30pm 23.2 19.2 2.7 26 9.8 SSE 13 15 7 8 1016.8 1016.5 0.0
25/11:00pm 24.0 19.6 2.8 25 10.2 S 15 17 8 9 1016.7 1016.4 0.0
25/10:30pm 25.2 20.8 2.6 23 10.9 S 15 17 8 9 1016.6 1016.3 0.0
25/10:00pm 25.2 20.8 2.6 23 10.9 SSE 15 17 8 9 1016.4 1016.1 0.0
25/09:30pm 26.1 22.1 2.7 22 11.4 SE 13 15 7 8 1016.1 1015.8 0.0
25/09:00pm 27.9 23.5 2.9 20 12.4 SE 15 17 8 9 1015.7 1015.4 0.0
25/08:30pm 29.4 25.0 2.6 18 13.3 SE 15 20 8 11 1015.4 1015.0 0.0
25/08:00pm 31.0 26.9 2.3 16 14.4 SE 13 17 7 9 1015.2 1014.8 0.0
25/07:30pm 32.4 26.5 1.5 14 15.4 SE 22 30 12 16 1015.0 1014.6 0.0
25/07:00pm 33.4 27.4 1.3 13 16.1 SSE 22 30 12 16 1014.8 1014.4 0.0
25/06:30pm 33.6 27.3 1.4 13 16.1 SSE 24 33 13 18 1014.7 1014.3 0.0
25/06:00pm 33.9 28.6 1.6 13 16.3 SE 19 28 10 15 1014.8 1014.4 0.0
25/05:30pm 34.0 27.7 1.7 13 16.3 SSE 24 35 13 19 1014.9 1014.5 0.0
25/05:00pm 33.8 27.5 1.6 13 16.2 SSE 24 41 13 22 1015.1 1014.7 0.0
25/04:30pm 34.3 27.9 3.0 14 16.2 SSE 26 37 14 20 1015.4 1015.0 0.0
25/04:00pm 33.9 28.0 1.6 13 16.3 S 22 39 12 21 1015.9 1015.6 0.0
25/03:30pm 33.9 27.6 3.7 15 15.7 SE 26 39 14 21 1016.2 1015.9 0.0
25/03:00pm 32.9 27.5 4.6 17 14.9 SSE 22 33 12 18 1016.7 1016.4 0.0
25/02:30pm 32.9 27.1 4.6 17 14.9 SSE 24 35 13 19 1017.2 1016.9 0.0
25/02:00pm 33.0 26.9 4.7 17 14.9 S 26 41 14 22 1017.5 1017.2 0.0
25/01:30pm 31.6 25.6 5.2 19 13.9 SSE 26 37 14 20 1018.1 1017.8 0.0
25/01:00pm 31.7 26.5 5.3 19 14.0 SSE 22 33 12 18 1018.5 1018.2 0.0
25/12:30pm 31.1 26.6 4.0 18 13.9 SE 17 28 9 15 1019.0 1018.7 0.0
25/12:00pm 29.6 24.9 5.0 21 12.8 SSE 19 24 10 13 1019.5 1019.2 0.0
25/11:30am 28.8 23.9 5.0 22 12.3 SE 20 26 11 14 1019.8 1019.5 0.0
25/11:00am 28.2 23.0 5.7 24 11.7 SE 22 30 12 16 1020.0 1019.7 0.0
25/10:30am 26.8 21.4 6.2 27 10.7 SE 24 30 13 16 1020.2 1019.9 0.0
25/10:00am 26.1 20.4 6.7 29 10.2 SE 26 35 14 19 1020.2 1019.9 0.0
25/09:30am 24.7 18.7 6.9 32 9.3 SE 28 35 15 19 1020.2 1019.9 0.0
25/09:00am 23.7 16.8 6.5 33 8.8 SSE 32 37 17 20 1020.1 1019.8 0.0
25/08:30am 22.4 16.7 6.6 36 8.1 SSE 26 32 14 17 1020.1 1019.8 0.0
25/08:00am 20.5 15.5 6.5 40 7.1 SSE 22 28 12 15 1019.9 1019.6 0.0
25/07:30am 19.4 14.4 6.5 43 6.4 SSE 22 26 12 14 1019.5 1019.2 0.0
25/07:00am 18.9 14.4 7.0 46 6.0 S 20 24 11 13 1019.3 1019.0 0.0
25/06:30am 18.3 14.5 7.4 49 5.5 S 17 19 9 10 1019.2 1018.9 0.0
25/06:00am 18.8 15.3 7.3 47 5.8 SSE 15 17 8 9 1019.0 1018.7 0.0
25/05:30am 19.7 16.0 7.8 46 6.1 SSE 17 20 9 11 1018.8 1018.5 0.0
25/05:00am 20.3 16.3 8.3 46 6.3 SSE 19 20 10 11 1018.7 1018.4 0.0
25/04:30am 20.7 16.8 8.7 46 6.3 SSE 19 22 10 12 1018.5 1018.2 0.0
25/04:00am 21.2 17.9 9.4 47 6.3 SSE 17 24 9 13 1018.4 1018.1 0.0
25/03:30am 20.9 18.1 10.1 50 5.8 SSE 15 20 8 11 1018.3 1018.0 0.0
25/03:00am 21.9 18.0 10.7 49 6.2 S 22 26 12 14 1018.3 1018.0 0.0
25/02:30am 22.2 18.4 11.0 49 6.2 S 22 28 12 15 1018.5 1018.2 0.0
25/02:00am 22.5 18.2 10.9 48 6.4 S 24 30 13 16 1018.7 1018.4 0.0
25/01:30am 23.3 18.3 11.0 46 6.8 S 28 35 15 19 1018.8 1018.5 0.0
25/01:00am 24.1 19.4 10.7 43 7.5 S 26 30 14 16 1018.9 1018.6 0.0
25/12:30am 25.0 21.0 8.9 36 8.7 S 20 28 11 15 1019.1 1018.8 0.0
25/12:00am 25.9 21.1 8.8 34 9.3 S 24 32 13 17 1019.1 1018.8 0.0
 
Date/Time
CDT
Temp
°C
App
Temp
°C
Dew
Point
°C
Rel
Hum
%
Delta-T
°C
Wind Press
QNH
hPa
Press
MSL
hPa
Rain since
9am
mm
Dir  Spd
km/h
Gust
km/h
Spd
kts
Gust
kts
24/11:30pm 26.9 21.6 8.4 31 10.0 SSE 26 35 14 19 1019.2 1018.9 0.0
24/11:00pm 27.8 22.3 7.6 28 10.9 SSE 26 35 14 19 1019.3 1019.0 0.0
24/10:30pm 28.1 23.6 6.2 25 11.5 SSE 19 26 10 14 1019.2 1018.9 0.0
24/10:00pm 29.1 23.6 5.9 23 12.2 S 24 28 13 15 1018.9 1018.6 0.0
24/09:30pm 29.8 23.1 5.8 22 12.6 S 30 35 16 19 1018.5 1018.2 0.0
24/09:00pm 30.4 24.1 5.6 21 13.1 S 28 35 15 19 1018.0 1017.7 0.0
24/08:30pm 31.5 25.0 6.5 21 13.5 SSW 30 35 16 19 1017.6 1017.3 0.0
24/08:00pm 32.3 25.6 7.2 21 13.7 SSW 32 41 17 22 1017.5 1017.2 0.0
24/07:30pm 33.4 26.9 6.6 19 14.6 S 30 39 16 21 1017.2 1016.9 0.0
24/07:00pm 34.3 29.0 6.6 18 15.2 S 24 35 13 19 1017.1 1016.8 0.0
24/06:30pm 35.0 30.0 6.3 17 15.7 S 22 35 12 19 1017.1 1016.8 0.0
24/06:00pm 35.2 30.4 4.7 15 16.3 S 19 33 10 18 1017.1 1016.8 0.0
24/05:30pm 36.1 32.2 5.4 15 16.6 S 15 35 8 19 1017.1 1016.8 0.0
24/05:00pm 35.6 31.2 5.0 15 16.5 S 17 26 9 14 1017.4 1017.1 0.0
24/04:30pm 35.5 31.9 6.7 17 15.9 SSW 15 37 8 20 1017.5 1017.2 0.0
24/04:00pm 35.6 31.3 6.8 17 15.9 SSE 19 41 10 22 1017.9 1017.6 0.0
24/03:30pm 35.6 32.0 6.8 17 15.9 SE 15 28 8 15 1018.3 1018.0 0.0
24/03:00pm 34.3 31.2 7.4 19 14.9 SW 13 22 7 12 1018.7 1018.4 0.0
24/02:30pm 33.9 30.9 7.8 20 14.5 S 13 24 7 13 1019.3 1019.0 0.0
24/02:00pm 33.0 30.2 8.5 22 13.7 S 13 22 7 12 1019.8 1019.5 0.0
24/01:30pm 32.9 30.6 9.0 23 13.5 SSW 11 22 6 12 1020.2 1019.9 0.0
24/01:00pm 31.4 28.7 9.0 25 12.6 SSW 13 20 7 11 1020.7 1020.4 0.0
24/12:30pm 30.2 27.2 9.1 27 11.8 SSW 15 20 8 11 1021.1 1020.8 0.0
24/12:00pm 29.6 27.0 9.2 28 11.3 SSE 13 24 7 13 1021.5 1021.2 0.0
24/11:30am 28.6 25.1 8.8 29 10.9 SSE 17 28 9 15 1021.7 1021.4 0.0
24/11:00am 28.5 25.0 8.7 29 10.9 SE 17 28 9 15 1021.8 1021.5 0.0
24/10:30am 27.9 23.9 9.2 31 10.3 SSE 20 26 11 14 1021.8 1021.5 0.0
24/10:00am 26.8 21.6 8.7 32 9.9 SSE 26 32 14 17 1021.6 1021.3 0.0
24/09:30am 25.8 20.7 9.2 35 9.1 SSE 26 32 14 17 1021.4 1021.1 0.0
24/09:00am 24.3 19.2 9.1 38 8.2 SSE 26 33 14 18 1021.3 1021.0 0.0
24/08:30am 22.8 18.2 9.6 43 7.1 S 24 32 13 17 1020.7 1020.4 0.0
24/08:00am 21.3 17.1 9.9 48 6.2 S 22 28 12 15 1020.3 1020.0 0.0
24/07:30am 20.1 16.3 9.7 51 5.5 S 20 26 11 14 1019.9 1019.6 0.0
24/07:00am 20.1 15.9 9.7 51 5.6 S 22 28 12 15 1019.5 1019.2 0.0
24/06:30am 20.4 16.5 9.6 50 5.8 S 20 26 11 14 1018.9 1018.6 0.0
24/06:00am 20.8 16.6 9.7 49 5.9 S 22 28 12 15 1018.6 1018.3 0.0
24/05:30am 21.0 16.9 10.2 50 5.8 S 22 30 12 16 1018.4 1018.1 0.0
24/05:00am 21.2 17.7 10.1 49 6.0 S 19 24 10 13 1018.2 1017.9 0.0
24/04:30am 21.6 17.9 10.1 48 6.2 S 20 24 11 13 1018.0 1017.7 0.0
24/04:00am 22.1 18.3 9.9 46 6.6 SSE 20 26 11 14 1017.7 1017.4 0.0
24/03:30am 22.6 18.3 9.4 43 7.1 S 22 28 12 15 1017.7 1017.4 0.0
24/03:00am 22.7 18.6 8.8 41 7.4 S 20 26 11 14 1017.9 1017.6 0.0
24/02:30am 23.0 19.0 8.3 39 7.8 S 19 24 10 13 1018.0 1017.7 0.0
24/02:00am 22.3 19.2 7.3 38 7.8 SSE 13 15 7 8 1018.4 1018.1 0.0
24/01:30am 23.3 20.1 7.0 35 8.4 S 13 17 7 9 1018.7 1018.4 0.0
24/01:00am 23.7 19.9 5.6 31 9.2 S 15 19 8 10 1018.8 1018.5 0.0
24/12:30am 24.1 19.6 4.0 27 9.9 S 17 20 9 11 1019.0 1018.7 0.0
24/12:00am 22.5 18.9 0.9 24 9.9 S 9 11 5 6 1019.3 1019.0 0.0
 
Date/Time
CDT
Temp
°C
App
Temp
°C
Dew
Point
°C
Rel
Hum
%
Delta-T
°C
Wind Press
QNH
hPa
Press
MSL
hPa
Rain since
9am
mm
Dir  Spd
km/h
Gust
km/h
Spd
kts
Gust
kts
23/11:30pm 22.8 18.3 -0.6 21 10.5 SSW 13 15 7 8 1019.2 1018.9 0.0
23/11:00pm 22.8 18.3 0.0 22 10.3 SSW 13 15 7 8 1019.1 1018.8 0.0
23/10:30pm 24.7 20.3 0.3 20 11.3 SSW 13 15 7 8 1018.8 1018.5 0.0
23/10:00pm 25.9 21.2 1.2 20 11.7 SSW 15 15 8 8 1018.6 1018.3 0.0
23/09:30pm 27.5 22.8 1.1 18 12.6 SSW 15 17 8 9 1018.3 1018.0 0.0
23/09:00pm 28.5 23.3 0.3 16 13.4 SSW 17 20 9 11 1018.1 1017.8 0.0
23/08:30pm 29.6 23.7 -0.7 14 14.3 SSW 20 33 11 18 1017.6 1017.3 0.0
23/08:00pm 30.9 24.6 -0.7 13 15.0 SSW 22 30 12 16 1017.4 1017.1 0.0
23/07:30pm 32.2 25.9 -0.8 12 15.8 SSW 22 28 12 15 1016.9 1016.6 0.0
23/07:00pm 33.3 27.0 -1.1 11 16.5 SSW 22 30 12 16 1016.7 1016.4 0.0
23/06:30pm 33.8 27.5 -0.7 11 16.7 SW 22 32 12 17 1016.5 1016.2 0.0
23/06:00pm 34.6 28.0 -0.1 11 17.1 SW 24 35 13 19 1016.3 1016.0 0.0
23/05:30pm 34.6 29.0 1.1 12 16.8 SW 20 30 11 16 1016.2 1015.9 0.0
23/05:00pm 34.5 29.1 1.0 12 16.8 SW 19 32 10 17 1016.3 1016.0 0.0
23/04:30pm 34.8 29.2 3.4 14 16.4 SW 22 32 12 17 1016.4 1016.1 0.0
23/04:00pm 34.6 30.7 3.2 14 16.3 SSW 13 20 7 11 1016.7 1016.4 0.0
23/03:30pm 34.4 29.3 3.1 14 16.2 S 19 30 10 16 1016.9 1016.6 0.0
23/03:00pm 33.7 29.3 2.5 14 15.9 SSW 15 24 8 13 1017.2 1016.9 0.0
23/02:30pm 33.5 29.0 4.2 16 15.4 SW 17 26 9 14 1017.5 1017.2 0.0
23/02:00pm 33.1 28.1 4.8 17 15.0 SSW 20 30 11 16 1017.8 1017.5 0.0
23/01:30pm 31.9 27.4 6.2 20 13.8 S 19 30 10 16 1017.9 1017.6 0.0
23/01:00pm 31.7 27.3 7.4 22 13.3 S 20 32 11 17 1018.2 1017.9 0.0
23/12:30pm 31.2 25.6 7.0 22 13.1 S 26 33 14 18 1018.3 1018.0 0.0
23/12:00pm 31.0 24.9 6.8 22 13.0 S 28 39 15 21 1018.5 1018.2 0.0
23/11:30am 29.8 23.0 7.1 24 12.2 S 32 39 17 21 1018.6 1018.3 0.0
23/11:00am 28.5 21.3 7.7 27 11.3 S 35 43 19 23 1018.6 1018.3 0.0
23/10:30am 27.6 20.7 9.0 31 10.2 S 35 48 19 26 1018.6 1018.3 0.0
23/10:00am 25.7 19.0 9.5 36 8.9 S 35 46 19 25 1018.5 1018.2 0.0
23/09:30am 24.4 17.0 9.9 40 8.0 S 39 48 21 26 1018.3 1018.0 0.0
23/09:00am 22.8 14.8 10.6 46 6.7 S 43 54 23 29 1017.5 1017.2 -
23/08:30am 21.8 13.8 10.6 49 6.1 S 43 54 23 29 1017.5 1017.2 -
23/08:00am 20.9 13.7 10.4 51 5.7 S 39 48 21 26 1017.2 1016.9 -
23/07:30am 20.4 14.3 9.9 51 5.6 S 32 43 17 23 1016.9 1016.6 -

Other Formats:

Comma delimited format used in spreadsheet applications
http://www.bom.gov.au/fwo/IDS60801/IDS60801.95480.axf

JavaScript Object Notation format (JSON) in row-major order
http://www.bom.gov.au/fwo/IDS60801/IDS60801.95480.json